^^
Datos históricos de la estación: Murcia-Puente Tocinos
Diario Informe para Mayo 26, 2021 Unidades:  Métrico    Ingés   Ambas
Diario Semanal Mensual Anual
  Máxima: Mínima: Promedio:
Temperatura: 21.5 °C 13.3 °C 16.5 °C
Punto de rocio: 12.4 °C 9.6 °C 10.9 °C
Humedad: 83% 52.1% 70%
Velocidad viento: 16.1km/h 0km/h 6.9km/h
Racha viento: 27.8km/h - -
Viento- - SE
Presión: 1023.7 hPa 1014.8 hPa -
Precipitación: 0.0 mm    
 
 
Tabla de datos para Mayo 26, 2021
Hora Temperatura Punto de rocio Presión Viento Velocidad viento Racha viento Humedad Intensidad lluvia(por hora) Nubes
00:04 18.5 °C 9.9 °C 1014.8 hPa SSO 5 km/h 11.9 km/h 57.2% 0.0 mm
00:09 18.7 °C 9.8 °C 1015.0 hPa SO 6.1 km/h 11.3 km/h 56.4% 0.0 mm
00:14 18.7 °C 9.7 °C 1015.0 hPa OSO 6.5 km/h 11.3 km/h 56% 0.0 mm
00:19 18.7 °C 9.7 °C 1015.0 hPa OSO 6.5 km/h 9.5 km/h 56% 0.0 mm
00:24 18.5 °C 9.8 °C 1015.1 hPa OSO 6.5 km/h 11.1 km/h 56.7% 0.0 mm
00:29 18.3 °C 9.7 °C 1015.1 hPa OSO 6.5 km/h 11.3 km/h 57% 0.0 mm
00:34 18.2 °C 9.7 °C 1015.1 hPa Oeste 6.5 km/h 9.7 km/h 57.7% 0.0 mm
00:39 18 °C 9.6 °C 1015.6 hPa OSO 5.4 km/h 8.4 km/h 58% 0.0 mm
00:44 17.9 °C 9.7 °C 1015.6 hPa OSO 5 km/h 9.5 km/h 58.7% 0.0 mm
00:49 17.8 °C 9.7 °C 1015.6 hPa OSO 5 km/h 10 km/h 59% 0.0 mm
00:54 17.8 °C 9.7 °C 1015.9 hPa SO 5 km/h 13 km/h 59% 0.0 mm
00:59 17.8 °C 9.7 °C 1015.9 hPa SO 7 km/h 12.9 km/h 59% 0.0 mm
01:04 17.8 °C 9.7 °C 1015.9 hPa SSO 7.6 km/h 11.1 km/h 59% 0.0 mm
01:09 17.9 °C 9.8 °C 1016.1 hPa SSO 7.1 km/h 11.1 km/h 59% 0.0 mm
01:14 17.9 °C 9.8 °C 1016.1 hPa SSO 6.9 km/h 11.3 km/h 59% 0.0 mm
01:19 18.1 °C 9.9 °C 1016.1 hPa Sur 6.6 km/h 11.3 km/h 59% 0.0 mm
01:24 18.1 °C 9.9 °C 1016.2 hPa Sur 6.5 km/h 8 km/h 59% 0.0 mm
01:29 18.1 °C 9.9 °C 1016.2 hPa SSO 4.4 km/h 8 km/h 59% 0.0 mm
01:34 18.1 °C 9.9 °C 1016.2 hPa SSO 3.9 km/h 10 km/h 58.5% 0.0 mm
01:39 18.2 °C 9.8 °C 1016.2 hPa SO 5.3 km/h 11.1 km/h 58% 0.0 mm
01:44 18.3 °C 9.9 °C 1016.2 hPa SO 5.8 km/h 11.3 km/h 58% 0.0 mm
01:49 18.3 °C 9.9 °C 1016.2 hPa SO 6.6 km/h 11.9 km/h 58% 0.0 mm
01:54 18.2 °C 9.9 °C 1016.3 hPa SO 6.9 km/h 11.9 km/h 58.3% 0.0 mm
01:59 18.1 °C 10 °C 1016.3 hPa OSO 7.4 km/h 13 km/h 59% 0.0 mm
02:04 18.1 °C 9.9 °C 1016.3 hPa SO 7.6 km/h 12.9 km/h 59% 0.0 mm
02:09 18 °C 9.9 °C 1016.4 hPa Sur 6.7 km/h 9.7 km/h 59% 0.0 mm
02:14 18 °C 9.9 °C 1016.4 hPa SSE 6.5 km/h 8 km/h 59% 0.0 mm
02:19 18.1 °C 9.9 °C 1016.4 hPa Este 4.4 km/h 7.6 km/h 59% 0.0 mm
02:24 17.9 °C 10 °C 1016.9 hPa SE 3.9 km/h 11.1 km/h 59.8% 0.0 mm
02:29 17.7 °C 10 °C 1016.9 hPa SSE 5.4 km/h 11.3 km/h 60.9% 0.0 mm
02:34 17.6 °C 10 °C 1016.9 hPa SSO 5.8 km/h 10 km/h 61% 0.0 mm
02:39 17.6 °C 10 °C 1017.1 hPa SO 6.6 km/h 9.7 km/h 61% 0.0 mm
02:44 17.7 °C 10 °C 1017.1 hPa SSO 6.9 km/h 9.7 km/h 61% 0.0 mm
02:49 17.7 °C 10 °C 1017.1 hPa SSO 5.4 km/h 9.7 km/h 60.6% 0.0 mm
02:54 17.8 °C 9.9 °C 1017.3 hPa Sur 5 km/h 9.7 km/h 60% 0.0 mm
02:59 17.8 °C 9.9 °C 1017.3 hPa Sur 5.6 km/h 9.7 km/h 59.7% 0.0 mm
03:04 17.9 °C 9.8 °C 1017.3 hPa SSO 5.8 km/h 9.7 km/h 59% 0.0 mm
03:09 18 °C 9.9 °C 1017.4 hPa SSO 5.8 km/h 8.4 km/h 59% 0.0 mm
03:14 18 °C 9.9 °C 1017.4 hPa SO 5.8 km/h 7.6 km/h 59% 0.0 mm
03:19 17.9 °C 9.8 °C 1017.4 hPa SO 5.8 km/h 8 km/h 59% 0.0 mm
03:24 17.9 °C 9.8 °C 1017.5 hPa SO 5.8 km/h 8 km/h 59.1% 0.0 mm
03:29 17.8 °C 9.9 °C 1017.5 hPa OSO 4.9 km/h 8 km/h 59.8% 0.0 mm
03:34 17.7 °C 9.9 °C 1017.5 hPa ONO 4.7 km/h 9.5 km/h 60.5% 0.0 mm
03:39 17.4 °C 9.9 °C 1017.8 hPa ONO 3.6 km/h 5.8 km/h 61.4% 0.0 mm
03:44 17.2 °C 10 °C 1017.8 hPa ONO 3.2 km/h 6.4 km/h 62.3% 0.0 mm
03:49 17.1 °C 10 °C 1017.8 hPa ONO 3 km/h 5.6 km/h 63% 0.0 mm
03:54 16.9 °C 10 °C 1017.9 hPa ONO 2.9 km/h 5.6 km/h 63.7% 0.0 mm
03:59 16.8 °C 9.9 °C 1017.9 hPa ONO 2.4 km/h 4.8 km/h 64% 0.0 mm
04:04 16.8 °C 9.9 °C 1017.9 hPa ONO 2.2 km/h 4.8 km/h 64% 0.0 mm
04:09 16.7 °C 9.8 °C 1018.0 hPa ONO 2.2 km/h 5.6 km/h 64% 0.0 mm
04:14 16.7 °C 9.8 °C 1018.0 hPa ONO 2.2 km/h 4.8 km/h 64% 0.0 mm
04:19 16.7 °C 9.8 °C 1018.0 hPa ONO 2.2 km/h 4.8 km/h 64% 0.0 mm
04:24 16.7 °C 9.9 °C 1018.0 hPa OSO 2.2 km/h 7.4 km/h 64% 0.0 mm
04:29 16.8 °C 9.9 °C 1018.0 hPa OSO 3.5 km/h 9.5 km/h 64% 0.0 mm
04:34 16.8 °C 10 °C 1018.0 hPa OSO 3.9 km/h 9.7 km/h 64% 0.0 mm
04:39 16.9 °C 10 °C 1018.2 hPa Oeste 5.3 km/h 9.7 km/h 64% 0.0 mm
04:44 16.8 °C 10 °C 1018.2 hPa Oeste 5.8 km/h 8 km/h 64.4% 0.0 mm
04:49 16.6 °C 10 °C 1018.2 hPa Oeste 4.9 km/h 8 km/h 65% 0.0 mm
04:54 16.6 °C 10.1 °C 1018.3 hPa NO 4.7 km/h 10 km/h 65.8% 0.0 mm
04:59 16.3 °C 10.2 °C 1018.3 hPa North 4.9 km/h 19 km/h 67.1% 0.0 mm
05:04 16.1 °C 10.6 °C 1018.3 hPa North 5 km/h 19.3 km/h 70.2% 0.0 mm
05:09 15.7 °C 11.1 °C 1018.5 hPa NNE 8.5 km/h 26.2 km/h 74.2% 0.0 mm
05:14 15.2 °C 11.2 °C 1018.5 hPa NNE 9.5 km/h 25.9 km/h 77.1% 0.0 mm
05:19 14.9 °C 11.2 °C 1018.5 hPa North 13.5 km/h 24.1 km/h 78.7% 0.0 mm
05:24 14.7 °C 11.2 °C 1018.8 hPa NNE 14.8 km/h 25.9 km/h 79.8% 0.0 mm
05:29 14.4 °C 11.2 °C 1018.8 hPa NNE 14.8 km/h 24.1 km/h 80.9% 0.0 mm
05:34 14.3 °C 11.1 °C 1018.8 hPa NNE 14.8 km/h 26.2 km/h 81% 0.0 mm
05:39 14.2 °C 11.1 °C 1019.0 hPa NNE 15.4 km/h 27.8 km/h 81.9% 0.0 mm
05:44 14.1 °C 11.1 °C 1019.0 hPa NNE 15.6 km/h 27.4 km/h 82% 0.0 mm
05:49 14.1 °C 11.1 °C 1019.0 hPa NNE 16 km/h 25.9 km/h 82% 0.0 mm
05:54 14 °C 11 °C 1019.2 hPa NNE 16.1 km/h 25.7 km/h 82% 0.0 mm
05:59 13.9 °C 10.9 °C 1019.2 hPa NNE 15.1 km/h 22.2 km/h 82% 0.0 mm
06:04 13.9 °C 10.9 °C 1019.2 hPa NNE 14.8 km/h 22.5 km/h 82% 0.0 mm
06:09 13.9 °C 10.7 °C 1019.5 hPa NNE 13.9 km/h 22.2 km/h 81.1% 0.0 mm
06:14 13.8 °C 10.6 °C 1019.5 hPa NNE 13.7 km/h 22.5 km/h 81% 0.0 mm
06:19 13.8 °C 10.6 °C 1019.5 hPa NNE 13.9 km/h 22.5 km/h 81% 0.0 mm
06:24 13.8 °C 10.6 °C 1019.6 hPa NNE 14 km/h 22.5 km/h 81% 0.0 mm
06:29 13.7 °C 10.5 °C 1019.6 hPa NNE 13.8 km/h 20.9 km/h 81% 0.0 mm
06:34 13.7 °C 10.3 °C 1019.6 hPa NNE 13.7 km/h 20.9 km/h 80.1% 0.0 mm
06:39 13.7 °C 10.3 °C 1019.8 hPa NNE 13.2 km/h 20.9 km/h 80% 0.0 mm
06:44 13.7 °C 10.3 °C 1019.8 hPa NNE 13 km/h 20.9 km/h 80% 0.0 mm
06:49 13.7 °C 10.3 °C 1019.8 hPa NNE 13.5 km/h 20.9 km/h 80% 0.0 mm
06:54 13.6 °C 10.2 °C 1020.1 hPa NNE 13.7 km/h 20.9 km/h 80% 0.0 mm
06:59 13.6 °C 10.2 °C 1020.1 hPa NNE 12.6 km/h 20.4 km/h 80% 0.0 mm
07:04 13.6 °C 10.2 °C 1020.1 hPa NNE 12.2 km/h 20.9 km/h 80% 0.0 mm
07:09 13.6 °C 10.2 °C 1020.3 hPa NNE 12.2 km/h 20.9 km/h 80.2% 0.0 mm
07:14 13.5 °C 10.3 °C 1020.3 hPa NNE 12.2 km/h 14.8 km/h 81% 0.0 mm
07:19 13.4 °C 10.2 °C 1020.3 hPa NNE 10.5 km/h 16.7 km/h 81% 0.0 mm
07:24 13.4 °C 10.3 °C 1020.6 hPa NNE 10 km/h 16.1 km/h 81.7% 0.0 mm
07:29 13.3 °C 10.3 °C 1020.6 hPa NNE 9.6 km/h 16.7 km/h 82% 0.0 mm
07:34 13.3 °C 10.3 °C 1020.6 hPa NNE 9.5 km/h 13.7 km/h 82% 0.0 mm
07:39 13.3 °C 10.3 °C 1020.8 hPa NNE 9.5 km/h 14.5 km/h 82% 0.0 mm
07:44 13.3 °C 10.3 °C 1020.8 hPa NNE 9.5 km/h 17.2 km/h 82% 0.0 mm
07:49 13.3 °C 10.3 °C 1020.8 hPa NNE 9.9 km/h 17.7 km/h 81.9% 0.0 mm
07:54 13.3 °C 10.1 °C 1021.1 hPa NNE 10 km/h 14.5 km/h 81% 0.0 mm
07:59 13.3 °C 10.1 °C 1021.1 hPa NNE 9 km/h 14.5 km/h 81% 0.0 mm
08:04 13.3 °C 10.1 °C 1021.1 hPa North 8.7 km/h 20.4 km/h 81% 0.0 mm
08:09 13.3 °C 10.1 °C 1021.3 hPa NNE 9.7 km/h 20.9 km/h 81% 0.0 mm
08:14 13.3 °C 10.2 °C 1021.3 hPa NNE 10 km/h 19.3 km/h 81.4% 0.0 mm
08:19 13.3 °C 10.1 °C 1021.3 hPa NNE 10 km/h 15.6 km/h 81% 0.0 mm
08:24 13.3 °C 10.2 °C 1021.5 hPa NNE 10 km/h 16.1 km/h 81.8% 0.0 mm
08:29 13.3 °C 10.3 °C 1021.5 hPa NNE 8.7 km/h 12.9 km/h 82% 0.0 mm
08:34 13.3 °C 10.3 °C 1021.5 hPa NNE 8.4 km/h 13 km/h 82% 0.0 mm
08:39 13.3 °C 10.3 °C 1021.7 hPa NNE 7.7 km/h 14.8 km/h 82% 0.0 mm
08:44 13.3 °C 10.3 °C 1021.7 hPa NNE 7.6 km/h 14.5 km/h 82% 0.0 mm
08:49 13.3 °C 10.3 °C 1021.7 hPa North 7.1 km/h 11.3 km/h 82% 0.0 mm
08:54 13.3 °C 10.4 °C 1021.7 hPa NNE 6.9 km/h 9.7 km/h 82.6% 0.0 mm
08:59 13.3 °C 10.5 °C 1021.7 hPa NNE 6.1 km/h 10 km/h 83% 0.0 mm
09:04 13.3 °C 10.5 °C 1021.7 hPa North 5.8 km/h 9.7 km/h 83% 0.0 mm
09:09 13.3 °C 10.5 °C 1021.8 hPa North 6.3 km/h 13.7 km/h 83% 0.0 mm
09:14 13.3 °C 10.5 °C 1021.8 hPa NNE 6.5 km/h 14.5 km/h 83% 0.0 mm
09:19 13.4 °C 10.5 °C 1021.8 hPa NNE 7.9 km/h 12.9 km/h 83% 0.0 mm
09:24 13.4 °C 10.4 °C 1021.9 hPa NNE 8.4 km/h 12.2 km/h 82.1% 0.0 mm
09:29 13.4 °C 10.4 °C 1021.9 hPa NNE 8.4 km/h 13.7 km/h 82% 0.0 mm
09:34 13.5 °C 10.5 °C 1021.9 hPa NNE 8.4 km/h 14.5 km/h 82% 0.0 mm
09:39 13.6 °C 10.4 °C 1022.4 hPa NNE 7.7 km/h 11.9 km/h 81% 0.0 mm
09:44 13.6 °C 10.4 °C 1022.4 hPa North 7.6 km/h 11.9 km/h 81% 0.0 mm
09:49 13.7 °C 10.5 °C 1022.4 hPa NNE 7.1 km/h 11.3 km/h 81% 0.0 mm
09:54 13.7 °C 10.4 °C 1022.5 hPa NNE 6.9 km/h 11.1 km/h 80.2% 0.0 mm
09:59 13.8 °C 10.4 °C 1022.5 hPa NE 6.5 km/h 11.9 km/h 79.8% 0.0 mm
10:04 13.8 °C 10.2 °C 1022.5 hPa NNE 6.5 km/h 11.9 km/h 78.8% 0.0 mm
10:09 13.8 °C 10.1 °C 1022.9 hPa NNE 8 km/h 11.3 km/h 78.2% 0.0 mm
10:14 13.9 °C 10.1 °C 1022.9 hPa NNE 8.4 km/h 13.7 km/h 77.8% 0.0 mm
10:19 14 °C 10 °C 1022.9 hPa North 7.7 km/h 14.8 km/h 77% 0.0 mm
10:24 14.1 °C 10 °C 1023.0 hPa NNE 7.6 km/h 14.8 km/h 76.6% 0.0 mm
10:29 14.1 °C 10 °C 1023.0 hPa NNE 8.4 km/h 13 km/h 76% 0.0 mm
10:34 14.3 °C 10 °C 1023.0 hPa NNE 8.7 km/h 13 km/h 75.6% 0.0 mm
10:39 14.3 °C 10.1 °C 1023.3 hPa North 7.9 km/h 12.9 km/h 76% 0.0 mm
10:44 14.4 °C 10.2 °C 1023.3 hPa NNE 7.6 km/h 11.3 km/h 76% 0.0 mm
10:49 14.4 °C 10.1 °C 1023.3 hPa NO 5.6 km/h 9.5 km/h 75.3% 0.0 mm
10:54 14.4 °C 10 °C 1023.6 hPa NNO 5 km/h 9.7 km/h 75% 0.0 mm
10:59 14.5 °C 10.1 °C 1023.6 hPa NNO 4.7 km/h 9.7 km/h 75% 0.0 mm
11:04 14.6 °C 10.1 °C 1023.6 hPa NO 4.7 km/h 6.4 km/h 74.4% 0.0 mm
11:09 14.7 °C 10 °C 1023.6 hPa NO 3.3 km/h 7.6 km/h 73.4% 0.0 mm
11:14 14.8 °C 10 °C 1023.6 hPa North 2.9 km/h 8 km/h 73% 0.0 mm
11:19 14.9 °C 10.1 °C 1023.6 hPa NNO 3.2 km/h 5.6 km/h 72.9% 0.0 mm
11:24 14.9 °C 9.9 °C 1023.7 hPa Oeste 3.2 km/h 6.4 km/h 72% 0.0 mm
11:29 15.1 °C 9.9 °C 1023.7 hPa OSO 3.2 km/h 9.5 km/h 71.3% 0.0 mm
11:34 15.1 °C 10 °C 1023.7 hPa OSO 3.2 km/h 9.7 km/h 71.3% 0.0 mm
11:39 15.3 °C 10.2 °C 1023.7 hPa SO 4.3 km/h 8 km/h 71.7% 0.0 mm
11:44 15.5 °C 10.1 °C 1023.7 hPa OSO 4.7 km/h 10 km/h 70.2% 0.0 mm
11:49 15.7 °C 10.2 °C 1023.7 hPa OSO 4.6 km/h 9.7 km/h 70% 0.0 mm
11:54 15.7 °C 10.3 °C 1023.7 hPa OSO 4.7 km/h 8 km/h 70% 0.0 mm
11:59 15.9 °C 10.4 °C 1023.4 hPa SSE 4.1 km/h 9.5 km/h 70% 0.0 mm
12:04 16.2 °C 10.6 °C 1023.4 hPa Oeste 3.9 km/h 11.9 km/h 69.3% 0.0 mm
12:09 16.4 °C 10.5 °C 1023.4 hPa NO 4.5 km/h 11.3 km/h 68% 0.0 mm
12:14 16.7 °C 10.7 °C 1023.1 hPa ESE 4.7 km/h 8 km/h 67.8% 0.0 mm
12:19 16.9 °C 10.7 °C 1023.1 hPa ESE 4.7 km/h 9.5 km/h 67% 0.0 mm
12:24 16.9 °C 10.7 °C 1023.1 hPa Sur 4.7 km/h 11.9 km/h 67% 0.0 mm
12:29 17 °C 10.9 °C 1023.0 hPa SSE 5.5 km/h 11.3 km/h 67% 0.0 mm
12:34 17.1 °C 11 °C 1023.0 hPa SO 5.8 km/h 10.3 km/h 67% 0.0 mm
12:39 17.2 °C 10.9 °C 1023.0 hPa SSO 5.8 km/h 13.7 km/h 66.5% 0.0 mm
12:44 17.3 °C 11.1 °C 1022.7 hPa Sur 5.8 km/h 14.5 km/h 66.9% 0.0 mm
12:49 17.3 °C 11.1 °C 1022.7 hPa Sur 6.6 km/h 11.9 km/h 66.8% 0.0 mm
12:54 17.4 °C 11.2 °C 1022.7 hPa SO 6.9 km/h 13.7 km/h 67% 0.0 mm
12:59 17.4 °C 11.1 °C 1022.6 hPa SSO 6.6 km/h 14.5 km/h 66.5% 0.0 mm
13:04 17.7 °C 11.2 °C 1022.6 hPa SSO 6.5 km/h 11.3 km/h 66.1% 0.0 mm
13:09 17.9 °C 11.3 °C 1022.6 hPa Sur 5.1 km/h 10.3 km/h 65.3% 0.0 mm
13:14 18.2 °C 11.4 °C 1022.3 hPa SSO 4.7 km/h 16.7 km/h 64.3% 0.0 mm
13:19 18.3 °C 11.2 °C 1022.3 hPa ENE 6.4 km/h 16.1 km/h 63.3% 0.0 mm
13:24 18.3 °C 11.3 °C 1022.3 hPa SO 6.9 km/h 11.3 km/h 63.7% 0.0 mm
13:29 18.4 °C 11.3 °C 1022.2 hPa SSO 6.6 km/h 11.3 km/h 63.1% 0.0 mm
13:34 18.7 °C 11.3 °C 1022.2 hPa SSE 6.5 km/h 11.1 km/h 62.5% 0.0 mm
13:39 18.7 °C 11.3 °C 1022.2 hPa SO 6 km/h 11.3 km/h 62.3% 0.0 mm
13:44 18.8 °C 11.5 °C 1021.9 hPa Sur 5.8 km/h 13.7 km/h 62.6% 0.0 mm
13:49 19 °C 11.5 °C 1021.9 hPa SSE 6.7 km/h 14.5 km/h 61.8% 0.0 mm
13:54 19.1 °C 11.5 °C 1021.9 hPa SSO 6.9 km/h 14.5 km/h 61.6% 0.0 mm
13:59 19.2 °C 11.5 °C 1021.7 hPa SE 6.9 km/h 12.9 km/h 61% 0.0 mm
14:04 19.3 °C 11.5 °C 1021.7 hPa SSE 6.9 km/h 14.8 km/h 60.5% 0.0 mm
14:09 19.7 °C 11.6 °C 1021.7 hPa SSO 5.4 km/h 14.8 km/h 59.6% 0.0 mm
14:14 19.8 °C 11.5 °C 1021.4 hPa SO 5 km/h 14.5 km/h 59% 0.0 mm
14:19 19.8 °C 11.6 °C 1021.4 hPa Oeste 5.6 km/h 13 km/h 59% 0.0 mm
14:24 19.8 °C 11.5 °C 1021.4 hPa NNO 5.8 km/h 12.9 km/h 58.6% 0.0 mm
14:29 19.9 °C 11.6 °C 1021.2 hPa NNE 4.9 km/h 11.9 km/h 58.7% 0.0 mm
14:34 20.1 °C 11.5 °C 1021.2 hPa NO 4.7 km/h 13 km/h 58% 0.0 mm
14:39 20.2 °C 11.5 °C 1021.2 hPa SO 6 km/h 12.9 km/h 57.3% 0.0 mm
14:44 20.3 °C 11.5 °C 1021.1 hPa SO 6.4 km/h 14.8 km/h 57% 0.0 mm
14:49 20.3 °C 11.5 °C 1021.1 hPa OSO 6.5 km/h 14.5 km/h 57% 0.0 mm
14:54 20.3 °C 11.5 °C 1021.1 hPa NNO 6.5 km/h 14.5 km/h 56.9% 0.0 mm
14:59 20.4 °C 11.3 °C 1021.0 hPa ONO 5.4 km/h 9.7 km/h 56% 0.0 mm
15:04 20.6 °C 11.5 °C 1021.0 hPa SSO 5 km/h 10 km/h 56% 0.0 mm
15:09 20.8 °C 11.6 °C 1021.0 hPa SE 4.2 km/h 9.7 km/h 55.7% 0.0 mm
15:14 20.9 °C 11.5 °C 1020.9 hPa Sur 3.9 km/h 13 km/h 55% 0.0 mm
15:19 21.1 °C 11.5 °C 1020.9 hPa SSO 5.8 km/h 13.7 km/h 54.4% 0.0 mm
15:24 21.2 °C 11.5 °C 1020.9 hPa SO 6.5 km/h 14.5 km/h 54% 0.0 mm
15:29 21.2 °C 11.4 °C 1020.9 hPa SSE 7.3 km/h 12.9 km/h 53.6% 0.0 mm
15:34 21.2 °C 11.3 °C 1020.9 hPa SE 7.6 km/h 14.8 km/h 53.4% 0.0 mm
15:39 21.2 °C 11.2 °C 1020.9 hPa Sur 6.7 km/h 14.5 km/h 53% 0.0 mm
15:44 21.2 °C 11.2 °C 1020.8 hPa SO 6.5 km/h 10 km/h 53% 0.0 mm
15:49 21.3 °C 11.4 °C 1020.8 hPa SSO 5.1 km/h 9.7 km/h 53% 0.0 mm
15:54 21.4 °C 11.4 °C 1020.8 hPa SSE 4.7 km/h 13 km/h 53% 0.0 mm
15:59 21.4 °C 11.4 °C 1020.7 hPa ESE 5.5 km/h 14.8 km/h 53% 0.0 mm
16:04 21.3 °C 11.3 °C 1020.7 hPa ESE 5.8 km/h 14.5 km/h 53% 0.0 mm
16:09 21.3 °C 11.3 °C 1020.8 hPa ESE 7.1 km/h 12.9 km/h 53% 0.0 mm
16:14 21.2 °C 11.3 °C 1020.8 hPa ENE 7.6 km/h 11.3 km/h 53.3% 0.0 mm
16:19 21.2 °C 11.2 °C 1020.8 hPa ESE 5.6 km/h 9.3 km/h 53.1% 0.0 mm
16:24 21.2 °C 11.3 °C 1020.9 hPa ESE 5 km/h 10 km/h 53.2% 0.0 mm
16:29 21.3 °C 11.3 °C 1020.9 hPa SE 5 km/h 9.7 km/h 53% 0.0 mm
16:34 21.4 °C 11.4 °C 1020.9 hPa ESE 5 km/h 9.7 km/h 52.9% 0.0 mm
16:39 21.4 °C 11.4 °C 1020.9 hPa ESE 5 km/h 10 km/h 52.9% 0.0 mm
16:44 21.5 °C 11.3 °C 1020.7 hPa SE 5 km/h 9.7 km/h 52.1% 0.0 mm
16:49 21.5 °C 11.5 °C 1020.7 hPa Este 5.6 km/h 11.1 km/h 52.7% 0.0 mm
16:54 21.4 °C 11.3 °C 1020.7 hPa ESE 5.8 km/h 11.3 km/h 52.6% 0.0 mm
16:59 21.3 °C 11.3 °C 1020.7 hPa ENE 6.7 km/h 11.9 km/h 53% 0.0 mm
17:04 21.1 °C 11.4 °C 1020.7 hPa NE 6.9 km/h 11.3 km/h 53.6% 0.0 mm
17:09 21 °C 11.3 °C 1020.9 hPa NE 6.1 km/h 18 km/h 54% 0.0 mm
17:14 20.7 °C 11.9 °C 1020.9 hPa NNE 5.8 km/h 20.9 km/h 57.2% 0.0 mm
17:19 20 °C 12.3 °C 1020.9 hPa NNE 9.1 km/h 20.4 km/h 61% 0.0 mm
17:24 19.6 °C 12.4 °C 1021.0 hPa NNE 10.3 km/h 16.1 km/h 63.1% 0.0 mm
17:29 19.2 °C 12.3 °C 1021.0 hPa NNE 9.1 km/h 20.9 km/h 64.3% 0.0 mm
17:34 18.8 °C 12.3 °C 1021.0 hPa NNE 8.7 km/h 20.9 km/h 65.7% 0.0 mm
17:39 18.6 °C 12.3 °C 1021.1 hPa NNE 11.4 km/h 22.2 km/h 66.7% 0.0 mm
17:44 18.3 °C 12.2 °C 1021.1 hPa NNE 12.2 km/h 22.5 km/h 67.7% 0.0 mm
17:49 18 °C 12.1 °C 1021.1 hPa NNE 14.2 km/h 22.5 km/h 68.1% 0.0 mm
17:54 17.8 °C 12 °C 1021.3 hPa NNE 14.8 km/h 22.2 km/h 69% 0.0 mm
17:59 17.7 °C 12 °C 1021.3 hPa NNE 12.6 km/h 22.5 km/h 69.6% 0.0 mm
18:04 17.4 °C 11.9 °C 1021.3 hPa NNE 11.9 km/h 20.9 km/h 70.2% 0.0 mm
18:09 17.3 °C 12 °C 1021.4 hPa NNE 12.1 km/h 20.9 km/h 71% 0.0 mm
18:14 17.2 °C 12 °C 1021.4 hPa NNE 12.2 km/h 20.9 km/h 71.3% 0.0 mm
18:19 17.1 °C 12 °C 1021.4 hPa NNE 12.2 km/h 20.4 km/h 72% 0.0 mm
18:24 16.9 °C 11.9 °C 1021.7 hPa North 12.2 km/h 20.9 km/h 72% 0.0 mm
18:29 16.9 °C 11.8 °C 1021.7 hPa NNE 10.7 km/h 19.3 km/h 72% 0.0 mm
18:34 16.8 °C 11.9 °C 1021.7 hPa NNE 10.3 km/h 16.1 km/h 72.8% 0.0 mm
18:39 16.7 °C 11.9 °C 1022.0 hPa North 9.1 km/h 14.5 km/h 73% 0.0 mm
18:44 16.7 °C 11.8 °C 1022.0 hPa North 8.7 km/h 13 km/h 73% 0.0 mm
18:49 16.7 °C 11.8 °C 1022.0 hPa North 7.4 km/h 13 km/h 73% 0.0 mm
18:54 16.6 °C 11.8 °C 1022.3 hPa North 6.9 km/h 13 km/h 73% 0.0 mm
18:59 16.6 °C 11.8 °C 1022.3 hPa NNE 6.9 km/h 14 km/h 73.6% 0.0 mm
19:04 16.4 °C 11.8 °C 1022.3 hPa North 6.9 km/h 14.8 km/h 74% 0.0 mm
19:09 16.3 °C 11.7 °C 1022.6 hPa NNO 6.9 km/h 14.5 km/h 74% 0.0 mm
19:14 16.3 °C 11.8 °C 1022.6 hPa North 6.9 km/h 13 km/h 74.6% 0.0 mm
19:19 16.2 °C 11.8 °C 1022.6 hPa NNE 6.9 km/h 13 km/h 75% 0.0 mm
19:24 16.1 °C 11.7 °C 1022.9 hPa North 6.9 km/h 14.8 km/h 75% 0.0 mm
19:29 16 °C 11.7 °C 1022.9 hPa NNE 8.1 km/h 14.5 km/h 75.8% 0.0 mm
19:34 15.9 °C 11.7 °C 1022.9 hPa NNE 8.4 km/h 12.9 km/h 76% 0.0 mm
19:39 15.8 °C 11.7 °C 1022.9 hPa NNE 7.8 km/h 11.3 km/h 76.3% 0.0 mm
19:44 15.8 °C 11.8 °C 1022.9 hPa NNE 7.6 km/h 11.3 km/h 77% 0.0 mm
19:49 15.7 °C 11.7 °C 1022.9 hPa NNE 6.7 km/h 11.3 km/h 77% 0.0 mm
19:54 15.6 °C 11.7 °C 1023.2 hPa North 6.5 km/h 11.3 km/h 77.5% 0.0 mm
19:59 15.6 °C 11.7 °C 1023.2 hPa NNE 6 km/h 9.7 km/h 78% 0.0 mm
20:04 15.4 °C 11.6 °C 1023.2 hPa NNE 5.8 km/h 12.2 km/h 78% 0.0 mm
20:09 15.4 °C 11.7 °C 1023.3 hPa NNE 5.8 km/h 13 km/h 78.9% 0.0 mm
20:14 15.3 °C 11.7 °C 1023.3 hPa NNE 5.8 km/h 13 km/h 79% 0.0 mm
20:19 15.2 °C 11.8 °C 1023.3 hPa NNE 6.3 km/h 12.9 km/h 79.9% 0.0 mm
20:24 15.2 °C 11.8 °C 1023.4 hPa North 6.5 km/h 9.7 km/h 80% 0.0 mm
20:29 15.2 °C 11.8 °C 1023.4 hPa NO 5.1 km/h 8.7 km/h 80% 0.0 mm
20:34 15.2 °C 11.8 °C 1023.4 hPa NNO 4.7 km/h 9.7 km/h 80.4% 0.0 mm
20:39 15.1 °C 11.9 °C 1023.4 hPa NE 3.5 km/h 9.7 km/h 81% 0.0 mm
20:44 15.1 °C 11.9 °C 1023.4 hPa NNE 3.2 km/h 9.7 km/h 81% 0.0 mm
20:49 15.1 °C 11.9 °C 1023.4 hPa North 4.5 km/h 10 km/h 81% 0.0 mm
20:54 15.1 °C 11.9 °C 1023.4 hPa North 5 km/h 9.7 km/h 81.2% 0.0 mm
20:59 14.9 °C 11.9 °C 1023.4 hPa NNE 5.6 km/h 9.7 km/h 82% 0.0 mm
21:04 14.9 °C 11.8 °C 1023.4 hPa NNE 5.8 km/h 9.7 km/h 82% 0.0 mm
21:09 14.9 °C 11.8 °C 1023.5 hPa North 4.3 km/h 8 km/h 82% 0.0 mm
21:14 14.8 °C 12 °C 1023.5 hPa North 3.9 km/h 8 km/h 82.8% 0.0 mm
21:19 14.8 °C 12 °C 1023.5 hPa North 3.1 km/h 5.6 km/h 83% 0.0 mm
21:24 14.8 °C 11.9 °C 1023.5 hPa North 2.9 km/h 4.8 km/h 83% 0.0 mm
21:29 14.8 °C 11.9 °C 1023.5 hPa North 0.6 km/h   83% 0.0 mm
21:34 14.8 °C 11.9 °C 1023.5 hPa Calm   5 km/h 83% 0.0 mm
21:39 14.8 °C 11.9 °C 1023.5 hPa SSO 1.7 km/h 7.4 km/h 83% 0.0 mm
21:44 14.8 °C 11.9 °C 1023.4 hPa SSO 2.2 km/h 8 km/h 83% 0.0 mm
21:49 14.8 °C 11.9 °C 1023.4 hPa SSO 4.1 km/h 8 km/h 83% 0.0 mm
21:54 14.8 °C 11.9 °C 1023.4 hPa Sur 4.7 km/h 8 km/h 83% 0.0 mm
21:59 14.9 °C 12 °C 1023.4 hPa SSO 4.7 km/h 8 km/h 83% 0.0 mm
22:04 14.9 °C 12.1 °C 1023.4 hPa Sur 4.7 km/h 8 km/h 83% 0.0 mm
22:09 15 °C 12 °C 1023.5 hPa SSO 4.7 km/h 9.3 km/h 82.1% 0.0 mm
22:14 15.1 °C 12.1 °C 1023.5 hPa Sur 4.7 km/h 9.7 km/h 82% 0.0 mm
22:19 15.2 °C 12.1 °C 1023.5 hPa Sur 4 km/h 7.6 km/h 82% 0.0 mm
22:24 15.2 °C 12 °C 1023.5 hPa SSE 3.9 km/h 8 km/h 81.2% 0.0 mm
22:29 15.2 °C 11.9 °C 1023.4 hPa Este 3.9 km/h 7.6 km/h 80.6% 0.0 mm
22:34 15.1 °C 11.9 °C 1023.4 hPa ESE 3.9 km/h 8 km/h 80.8% 0.0 mm
22:39 15 °C 11.8 °C 1023.4 hPa SSE 4.5 km/h 8 km/h 81.1% 0.0 mm
22:44 14.9 °C 11.8 °C 1023.4 hPa SSO 4.7 km/h 8 km/h 82% 0.0 mm
22:49 15 °C 11.9 °C 1023.4 hPa SO 4.6 km/h 9.5 km/h 82% 0.0 mm
22:54 15.1 °C 12 °C 1023.5 hPa SO 4.7 km/h 9.7 km/h 81.9% 0.0 mm
22:59 15.2 °C 11.9 °C 1023.5 hPa SO 5.5 km/h 9.7 km/h 81% 0.0 mm
23:04 15.2 °C 12 °C 1023.5 hPa Oeste 5.8 km/h 10 km/h 80.8% 0.0 mm
23:09 15.3 °C 11.9 °C 1023.5 hPa ONO 5.2 km/h 9.7 km/h 80% 0.0 mm
23:14 15.3 °C 11.9 °C 1023.5 hPa OSO 5 km/h 8.4 km/h 80% 0.0 mm
23:19 15.3 °C 11.9 °C 1023.5 hPa SSO 4.1 km/h 9.3 km/h 80% 0.0 mm
23:24 15.3 °C 11.9 °C 1023.5 hPa SSO 3.9 km/h 12.2 km/h 80% 0.0 mm
23:29 15.4 °C 11.8 °C 1023.3 hPa Sur 5.9 km/h 13 km/h 79% 0.0 mm
23:34 15.4 °C 11.8 °C 1023.3 hPa SSO 6.5 km/h 14.8 km/h 79% 0.0 mm
23:39 15.4 °C 11.8 °C 1023.3 hPa Sur 8.8 km/h 14.8 km/h 79% 0.0 mm
23:44 15.4 °C 11.7 °C 1023.0 hPa Sur 9.5 km/h 14.8 km/h 78.9% 0.0 mm
23:49 15.4 °C 11.6 °C 1023.0 hPa SSO 9.5 km/h 16.7 km/h 78% 0.0 mm
23:54 15.4 °C 11.6 °C 1023.0 hPa SSO 9.5 km/h 16.1 km/h 78% 0.0 mm
23:59 15.4 °C 11.6 °C 1022.7 hPa SSO 8.9 km/h 14.8 km/h 78% 0.0 mm
Murcia-Puente Tocinos, Espa?a
Compliments of Weather Underground - 3 mb

La estación de MeteoMurcia.com, publica sus datos en los siguientes proyectos:

Weather Underground PWS IMURCIAP2 Meteoclimatic www.awekas.at

W3Counter
Web Analytics